createdAt,value
2022-10-22T00:09:58.407Z,13.80
2022-10-22T00:20:02.213Z,13.90
2022-10-22T00:30:08.979Z,14.00
2022-10-22T00:40:13.754Z,13.90
2022-10-22T00:50:23.688Z,14.10
2022-10-22T01:00:27.350Z,14.10
2022-10-22T01:10:54.038Z,14.00
2022-10-22T01:21:10.839Z,14.10
2022-10-22T01:31:18.438Z,14.10
2022-10-22T01:41:22.364Z,14.10
2022-10-22T01:51:44.147Z,14.20
2022-10-22T02:01:56.322Z,14.20
2022-10-22T02:22:17.479Z,14.30
2022-10-22T02:32:28.340Z,14.50
2022-10-22T02:42:32.239Z,14.60
2022-10-22T02:52:37.613Z,14.50
2022-10-22T03:02:41.557Z,14.50
2022-10-22T03:12:46.504Z,14.60
2022-10-22T03:22:50.174Z,14.50
2022-10-22T03:32:55.078Z,14.40
2022-10-22T03:42:59.921Z,14.50
2022-10-22T03:53:05.269Z,14.50
2022-10-22T04:03:08.931Z,14.40
2022-10-22T04:13:13.878Z,14.50
2022-10-22T04:23:20.344Z,14.50
2022-10-22T04:33:31.192Z,14.40
2022-10-22T04:43:55.659Z,14.40
2022-10-22T04:54:00.994Z,14.40
2022-10-22T05:04:06.979Z,15.70
2022-10-22T05:14:13.671Z,14.40
2022-10-22T05:24:21.046Z,14.40
2022-10-22T05:34:26.384Z,14.40
2022-10-22T05:44:30.482Z,14.30
2022-10-22T05:54:35.770Z,14.40
2022-10-22T06:04:39.390Z,14.40
2022-10-22T06:14:44.331Z,14.50
2022-10-22T06:24:47.953Z,14.50
2022-10-22T06:34:52.980Z,14.50
2022-10-22T06:44:56.550Z,14.60
2022-10-22T06:55:01.580Z,14.40
2022-10-22T07:05:05.925Z,14.30
2022-10-22T07:15:11.719Z,14.20
2022-10-22T07:25:15.446Z,14.30
2022-10-22T07:35:20.470Z,14.40
2022-10-22T07:45:24.096Z,14.50
2022-10-22T07:55:29.086Z,14.60
2022-10-22T08:05:32.724Z,14.80
2022-10-22T08:15:40.964Z,15.00
2022-10-22T08:25:44.582Z,15.20
2022-10-22T08:35:51.430Z,15.40
2022-10-22T08:46:11.143Z,15.50
2022-10-22T08:56:16.991Z,15.70
2022-10-22T09:06:25.323Z,15.90
2022-10-22T09:16:40.068Z,16.30
2022-10-22T09:26:46.735Z,16.40
2022-10-22T09:36:59.688Z,16.70
2022-10-22T09:47:06.631Z,16.70
2022-10-22T09:57:21.453Z,16.80
2022-10-22T10:07:28.047Z,16.80
2022-10-22T10:17:42.061Z,16.90
2022-10-22T10:27:55.313Z,16.90
2022-10-22T10:38:18.857Z,17.10
2022-10-22T10:48:51.034Z,17.30
2022-10-22T10:59:08.220Z,17.50
2022-10-22T11:09:25.925Z,17.60
2022-10-22T11:19:57.793Z,17.80
2022-10-22T11:30:05.845Z,17.50
2022-10-22T11:40:20.469Z,17.40
2022-10-22T11:50:48.919Z,17.50
2022-10-22T12:00:58.604Z,18.20
2022-10-22T12:11:18.357Z,18.60
2022-10-22T12:21:34.764Z,18.80
2022-10-22T12:31:41.004Z,19.00
2022-10-22T12:41:46.648Z,18.80
2022-10-22T12:51:50.683Z,18.80
2022-10-22T13:01:56.914Z,18.50
2022-10-22T13:12:06.017Z,18.50
2022-10-22T13:22:33.971Z,18.50
2022-10-22T13:32:39.964Z,18.20
2022-10-22T13:42:46.092Z,18.00
2022-10-22T13:52:54.681Z,18.00
2022-10-22T14:03:11.512Z,18.30
2022-10-22T14:13:17.913Z,18.40
2022-10-22T14:23:26.464Z,18.40
2022-10-22T14:33:32.705Z,18.50
2022-10-22T14:43:37.650Z,18.40
2022-10-22T14:53:41.560Z,18.60
2022-10-22T15:03:46.812Z,18.70
2022-10-22T15:13:50.434Z,18.30
2022-10-22T15:23:55.468Z,18.20
2022-10-22T15:34:01.720Z,18.20
2022-10-22T15:44:08.540Z,18.00
2022-10-22T15:54:15.629Z,17.80
2022-10-22T16:04:21.087Z,17.50
2022-10-22T16:14:25.782Z,17.20
2022-10-22T16:24:33.151Z,16.90
2022-10-22T16:34:37.246Z,16.80
2022-10-22T16:44:42.872Z,16.50
2022-10-22T16:54:47.371Z,16.20
2022-10-22T17:04:52.889Z,15.70
2022-10-22T17:14:56.687Z,15.40
2022-10-22T17:25:15.859Z,15.00
2022-10-22T17:35:19.944Z,14.80
2022-10-22T17:45:25.431Z,14.30
2022-10-22T17:55:30.740Z,14.20
2022-10-22T18:05:36.824Z,14.10
2022-10-22T18:15:46.436Z,14.00
2022-10-22T18:25:52.564Z,14.00
2022-10-22T18:35:56.828Z,13.90
2022-10-22T18:46:02.328Z,13.70
2022-10-22T18:56:07.263Z,13.70
2022-10-22T19:06:13.977Z,13.50
2022-10-22T19:16:23.975Z,13.40
2022-10-22T19:26:30.603Z,13.30
2022-10-22T19:36:34.504Z,13.30
2022-10-22T19:46:39.684Z,13.20
2022-10-22T19:56:43.436Z,13.20
2022-10-22T20:06:48.654Z,13.10
2022-10-22T20:16:53.553Z,13.00
2022-10-22T20:26:58.941Z,12.90
2022-10-22T20:37:06.315Z,12.80
2022-10-22T20:47:14.325Z,12.80
2022-10-22T20:57:17.970Z,12.80
2022-10-22T21:07:22.942Z,12.70
2022-10-22T21:17:26.649Z,12.70
2022-10-22T21:27:31.733Z,12.60
2022-10-22T21:37:36.002Z,12.60
2022-10-22T21:47:41.767Z,12.70
2022-10-22T21:57:45.834Z,12.60
2022-10-22T22:07:51.189Z,12.60
2022-10-22T22:17:55.029Z,12.60
2022-10-22T22:28:00.181Z,12.30
2022-10-22T22:38:04.494Z,12.30
2022-10-22T22:48:09.809Z,12.20
2022-10-22T22:58:13.421Z,12.20
2022-10-22T23:08:18.377Z,12.10
2022-10-22T23:18:28.147Z,11.90
2022-10-22T23:28:33.135Z,11.80
2022-10-22T23:38:38.911Z,11.70
2022-10-22T23:48:47.472Z,11.70
2022-10-22T23:58:52.736Z,11.60
